EDT,Max TemperatureF,Mean TemperatureF,Min TemperatureF,Max Dew PointF,MeanDew PointF,Min DewpointF,Max Humidity, Mean Humidity, Min Humidity, Max Sea Level PressureIn, Mean Sea Level PressureIn, Min Sea Level PressureIn, Max VisibilityMiles, Mean VisibilityMiles, Min VisibilityMiles, Max Wind SpeedMPH, Mean Wind SpeedMPH, Max Gust SpeedMPH,PrecipitationIn, CloudCover, Events, WindDirDegrees
2012-6-1,75,67,61,60,53,46,87,64,52,30.01,29.93,29.77,10,10,10,15,7,25,0.00,3,Rain,79
2012-6-2,77,70,61,65,58,46,96,76,41,29.76,29.69,29.64,10,8,2,20,11,28,0.75,5,Rain,310
2012-6-3,81,67,54,59,53,46,82,66,34,29.76,29.69,29.63,10,9,2,13,4,34,0.47,3,Rain-Thunderstorm,275
2012-6-4,64,59,54,55,51,45,94,75,56,29.81,29.67,29.61,10,9,5,12,5,17,0.31,7,Rain,30
2012-6-5,66,57,50,54,47,43,87,67,50,29.94,29.87,29.80,10,10,10,10,6,,0.00,6,Rain,5
2012-6-6,73,62,51,57,51,48,96,70,42,29.99,29.96,29.92,10,10,10,9,1,,0.00,3,Fog-Thunderstorm,198
2012-6-7,81,68,57,57,53,47,90,64,31,29.98,29.94,29.88,10,10,10,9,2,17,0.03,3,Rain,337
2012-6-8,84,68,55,56,53,48,93,58,29,29.94,29.88,29.80,10,10,10,14,3,20,0.00,1,,286
2012-6-9,80,72,63,60,57,53,75,60,45,29.97,29.90,29.85,10,10,10,9,2,,0.00,3,Rain,305
2012-6-10,86,75,66,65,63,60,93,67,49,30.18,30.05,29.97,10,10,10,9,3,23,0.01,4,Rain,157
2012-6-11,81,72,66,63,58,47,83,65,36,30.24,30.21,30.16,10,10,10,14,7,22,0.00,5,,129
2012-6-12,73,70,66,67,64,60,94,86,71,30.17,29.99,29.89,10,6,3,15,9,23,0.60,8,Rain,159
2012-6-13,73,68,64,65,63,57,96,85,59,30.06,29.93,29.85,10,7,2,14,6,23,0.11,8,Rain,45
2012-6-14,78,70,62,63,59,55,94,73,50,30.24,30.15,30.06,10,10,10,13,4,17,0.00,4,,40
2012-6-15,81,70,61,60,55,49,90,63,36,30.29,30.26,30.23,10,10,8,10,3,18,0.00,2,Fog,75
2012-6-16,80,68,57,57,53,48,87,61,35,30.32,30.27,30.22,10,10,10,13,4,20,0.00,1,,134
2012-6-17,77,66,59,57,55,53,81,70,57,30.23,30.18,30.09,10,10,10,9,4,21,0.00,6,,120
2012-6-18,73,64,55,57,53,51,89,69,53,30.15,30.12,30.09,10,10,10,10,3,23,0.00,3,,168
2012-6-19,82,72,64,66,60,57,88,73,58,30.16,30.12,30.06,10,10,10,10,6,16,0.00,6,,196
2012-6-20,97,84,70,71,69,66,90,63,41,30.07,30.00,29.91,10,9,6,10,4,16,0.00,0,,267
2012-6-21,97,88,79,70,68,65,72,53,37,29.93,29.85,29.76,10,10,2,14,6,22,0.00,0,,290
2012-6-22,93,81,69,70,68,65,91,69,42,29.81,29.78,29.73,10,8,1,13,4,26,0.44,2,Rain-Thunderstorm,295
2012-6-23,86,76,69,69,59,51,93,57,33,29.98,29.87,29.80,10,10,7,15,5,20,0.00,2,,325
2012-6-24,86,74,63,65,57,51,80,55,32,30.01,29.95,29.88,10,10,10,10,3,18,0.01,1,Rain,251
2012-6-25,77,68,61,68,63,51,94,81,67,29.86,29.72,29.64,10,8,1,16,5,25,1.09,5,Fog-Rain-Thunderstorm,310
2012-6-26,75,66,57,52,49,46,69,54,38,29.77,29.71,29.68,10,10,10,22,12,34,0.00,4,,313
2012-6-27,82,72,62,52,49,46,63,44,28,29.82,29.75,29.71,10,10,10,20,8,30,0.00,0,,288
2012-6-28,91,77,64,60,56,51,67,47,34,29.83,29.77,29.70,10,10,10,10,7,,0.00,0,,271
2012-6-29,96,83,70,71,67,60,90,59,41,29.71,29.65,29.60,10,10,6,14,6,20,0.15,1,Rain-Thunderstorm,244
2012-6-30,93,83,73,68,61,55,68,47,30,29.77,29.73,29.65,10,10,10,14,6,21,0.00,0,,277